Time;durP1;ratioP1;P1;durP2;ratioP2;P2;SDS_P1;SDS_P2;PMS_P1;PMS_P2;Temp;Humidity;BMP_temperature;BMP_pressure;BME280_temperature;BME280_humidity;BME280_pressure;Samples;Min_cycle;Max_cycle;Signal;HPM_P1;HPM_P2
2023/01/07 00:01:38;;;;;;;;;;;;;;;;;;4994204;28;20384;-67
2023/01/07 00:04:06;;;;;;;;;;;;;;;;;;4997071;28;20376;-65
2023/01/07 00:06:34;;;;;;;;;;;;;;;;;;4998332;28;20000;-67
2023/01/07 00:09:00;;;;;;;;;;;;;;;;;;4996034;28;20332;-67
2023/01/07 00:11:25;;;;;;;;;;;;;;;;;;4997223;28;20165;-67
2023/01/07 00:13:53;;;;;;;;;;;;;;;;;;4998727;28;19921;-68
2023/01/07 00:16:19;;;;;;;;;;;;;;;;;;4996832;28;19924;-67
2023/01/07 00:18:47;;;;;;;;;;;;;;;;;;4994140;28;19991;-68
2023/01/07 00:21:15;;;;;;;;;;;;;;;;;;4994775;28;20284;-68
2023/01/07 00:23:41;;;;;;;;;;;;;;;;;;4994864;28;19972;-68
2023/01/07 00:26:08;;;;;;;;;;;;;;;;;;4994862;28;19972;-68
2023/01/07 00:28:36;;;;;;;;;;;;;;;;;;4998916;28;20036;-67
2023/01/07 00:31:04;;;;;;;;;;;;;;;;;;4995712;28;19917;-66
2023/01/07 00:33:29;;;;;;;;;;;;;;;;;;4981215;28;20032;-67
2023/01/07 00:35:55;;;;;;;;;;;;;;;;;;5000073;28;20020;-67
2023/01/07 00:38:20;;;;;;;;;;;;;;;;;;4985199;28;19921;-67
2023/01/07 00:40:46;;;;;;;;;;;;;;;;;;4998671;28;19928;-67
2023/01/07 00:43:12;;;;;;;;;;;;;;;;;;4999006;28;19924;-67
2023/01/07 00:45:40;;;;;;;;;;;;;;;;;;4998434;28;19921;-67
2023/01/07 00:48:08;;;;;;;;;;;;;;;;;;4999273;28;20183;-67
2023/01/07 00:50:34;;;;;;;;;;;;;;;;;;4981026;28;20035;-66
2023/01/07 00:52:59;;;;;;;;;;;;;;;;;;4997987;28;19986;-66
2023/01/07 00:55:25;;;;;;;;;;;;;;;;;;4997293;28;19921;-66
2023/01/07 00:57:52;;;;;;;;;;;;;;;;;;4996636;28;19917;-64
2023/01/07 01:00:18;;;;;;;;;;;;;;;;;;4996853;28;20304;-65
2023/01/07 01:02:44;;;;;;;;;;;;;;;;;;5000079;28;19924;-66
2023/01/07 01:05:12;;;;;;;;;;;;;;;;;;5000053;28;20071;-66
2023/01/07 01:07:37;;;;;;;;;;;;;;;;;;4981984;28;19921;-66
2023/01/07 01:10:07;;;;;;;;;;;;;;;;;;4998420;28;19925;-66
2023/01/07 01:12:34;;;;;;;;;;;;;;;;;;5000174;28;19921;-65
2023/01/07 01:14:59;;;;;;;;;;;;;;;;;;5000466;28;19921;-66
2023/01/07 01:17:25;;;;;;;;;;;;;;;;;;4999914;28;19921;-66
2023/01/07 01:19:53;;;;;;;;;;;;;;;;;;5000022;28;19921;-67
2023/01/07 01:22:18;;;;;;;;;;;;;;;;;;4983341;28;19955;-67
2023/01/07 01:24:46;;;;;;;;;;;;;;;;;;5000534;28;19940;-67
2023/01/07 01:27:14;;;;;;;;;;;;;;;;;;4985178;28;19917;-67
2023/01/07 01:29:41;;;;;;;;;;;;;;;;;;4998443;28;20246;-67
2023/01/07 01:32:07;;;;;;;;;;;;;;;;;;5000183;28;19928;-66
2023/01/07 01:34:33;;;;;;;;;;;;;;;;;;4997554;28;19921;-66
2023/01/07 01:36:58;;;;;;;;;;;;;;;;;;4983986;28;20458;-66
2023/01/07 01:39:23;;;;;;;;;;;;;;;;;;4996836;28;19924;-66
2023/01/07 01:41:49;;;;;;;;;;;;;;;;;;4998732;28;19921;-66
2023/01/07 01:44:14;;;;;;;;;;;;;;;;;;4998008;28;20206;-66
2023/01/07 01:46:42;;;;;;;;;;;;;;;;;;4997455;28;19971;-67
2023/01/07 01:49:08;;;;;;;;;;;;;;;;;;4999141;28;19928;-65
2023/01/07 01:51:36;;;;;;;;;;;;;;;;;;4999733;28;19936;-65
2023/01/07 01:54:02;;;;;;;;;;;;;;;;;;4999080;28;19928;-65
2023/01/07 01:56:27;;;;;;;;;;;;;;;;;;4996970;28;19923;-65
2023/01/07 01:58:53;;;;;;;;;;;;;;;;;;4985157;28;20416;-65
2023/01/07 02:01:18;;;;;;;;;;;;;;;;;;4997991;28;19939;-65
2023/01/07 02:03:43;;;;;;;;;;;;;;;;;;5000119;28;19925;-64
2023/01/07 02:06:09;;;;;;;;;;;;;;;;;;4997427;28;20883;-65
2023/01/07 02:08:37;;;;;;;;;;;;;;;;;;4997451;28;19953;-64
2023/01/07 02:11:02;;;;;;;;;;;;;;;;;;5000453;28;19932;-65
2023/01/07 02:13:31;;;;;;;;;;;;;;;;;;4998783;28;19917;-64
2023/01/07 02:15:57;;;;;;;;;;;;;;;;;;4997687;28;20015;-65
2023/01/07 02:18:27;;;;;;;;;;;;;;;;;;5000073;28;19925;-65
2023/01/07 02:20:55;;;;;;;;;;;;;;;;;;5000301;28;19921;-66
2023/01/07 02:23:21;;;;;;;;;;;;;;;;;;5000602;28;20210;-65
2023/01/07 02:25:46;;;;;;;;;;;;;;;;;;4994578;28;19921;-65
2023/01/07 02:28:14;;;;;;;;;;;;;;;;;;4993279;28;20548;-65
2023/01/07 02:30:39;;;;;;;;;;;;;;;;;;4979524;28;20023;-66
2023/01/07 02:33:05;;;;;;;;;;;;;;;;;;4998142;28;20008;-65
2023/01/07 02:35:31;;;;;;;;;;;;;;;;;;4998622;28;19917;-66
2023/01/07 02:37:58;;;;;;;;;;;;;;;;;;4998373;28;20184;-66
2023/01/07 02:40:26;;;;;;;;;;;;;;;;;;4983308;28;19928;-66
2023/01/07 02:42:54;;;;;;;;;;;;;;;;;;4983094;28;19945;-66
2023/01/07 02:45:20;;;;;;;;;;;;;;;;;;4997103;28;19917;-66
2023/01/07 02:47:45;;;;;;;;;;;;;;;;;;4998167;28;19961;-65
2023/01/07 02:50:11;;;;;;;;;;;;;;;;;;4995871;28;20292;-66
2023/01/07 02:52:38;;;;;;;;;;;;;;;;;;4998393;28;20468;-66
2023/01/07 02:55:03;;;;;;;;;;;;;;;;;;4995648;28;20060;-66
2023/01/07 02:57:29;;;;;;;;;;;;;;;;;;4996084;28;19917;-66
2023/01/07 02:59:55;;;;;;;;;;;;;;;;;;4998861;28;19921;-67
2023/01/07 03:02:22;;;;;;;;;;;;;;;;;;4996424;28;19924;-66
2023/01/07 03:04:49;;;;;;;;;;;;;;;;;;4998731;28;21460;-65
2023/01/07 03:07:19;;;;;;;;;;;;;;;;;;4995736;28;20469;-66
2023/01/07 03:09:45;;;;;;;;;;;;;;;;;;4997375;28;19924;-66
2023/01/07 03:12:10;;;;;;;;;;;;;;;;;;5000296;28;19925;-66
2023/01/07 03:14:38;;;;;;;;;;;;;;;;;;4997716;28;19928;-67
2023/01/07 03:17:06;;;;;;;;;;;;;;;;;;4995808;28;19921;-67
2023/01/07 03:19:32;;;;;;;;;;;;;;;;;;4998830;28;19923;-65
2023/01/07 03:21:57;;;;;;;;;;;;;;;;;;4996157;28;20003;-66
2023/01/07 03:24:24;;;;;;;;;;;;;;;;;;4981602;28;19928;-65
2023/01/07 03:26:50;;;;;;;;;;;;;;;;;;4979878;28;19929;-67
2023/01/07 03:29:18;;;;;;;;;;;;;;;;;;4996713;28;20078;-66
2023/01/07 03:31:43;;;;;;;;;;;;;;;;;;4997062;28;19921;-66
2023/01/07 03:34:09;;;;;;;;;;;;;;;;;;4982254;28;20299;-66
2023/01/07 03:36:34;;;;;;;;;;;;;;;;;;4995377;28;20096;-66
2023/01/07 03:39:00;;;;;;;;;;;;;;;;;;4998705;28;19917;-66
2023/01/07 03:44:13;;;;;;;;;;;;;;;;;;4997321;28;19969;-67
2023/01/07 03:46:38;;;;;;;;;;;;;;;;;;4975352;28;19921;-66
2023/01/07 03:49:03;;;;;;;;;;;;;;;;;;4995013;28;20406;-66
2023/01/07 03:51:29;;;;;;;;;;;;;;;;;;4997992;28;20073;-65
2023/01/07 03:53:55;;;;;;;;;;;;;;;;;;4995345;28;19925;-66
2023/01/07 03:56:21;;;;;;;;;;;;;;;;;;4993463;28;19953;-66
2023/01/07 03:58:46;;;;;;;;;;;;;;;;;;4996789;28;20443;-67
2023/01/07 04:01:12;;;;;;;;;;;;;;;;;;4996999;28;19921;-68
2023/01/07 04:03:40;;;;;;;;;;;;;;;;;;4994267;28;19925;-66
2023/01/07 04:06:05;;;;;;;;;;;;;;;;;;4982461;28;20020;-67
2023/01/07 04:08:36;;;;;;;;;;;;;;;;;;4998978;28;20494;-66
2023/01/07 04:11:01;;;;;;;;;;;;;;;;;;4995636;28;19918;-67
2023/01/07 04:13:27;;;;;;;;;;;;;;;;;;4999170;28;20451;-65
2023/01/07 04:15:53;;;;;;;;;;;;;;;;;;4997154;28;19921;-67
2023/01/07 04:18:21;;;;;;;;;;;;;;;;;;4996719;28;20320;-66
2023/01/07 04:20:47;;;;;;;;;;;;;;;;;;4998647;28;19922;-66
2023/01/07 04:23:13;;;;;;;;;;;;;;;;;;4978151;28;19968;-66
2023/01/07 04:25:40;;;;;;;;;;;;;;;;;;4983896;28;19917;-67
2023/01/07 04:28:05;;;;;;;;;;;;;;;;;;4998115;28;19928;-67
2023/01/07 04:30:32;;;;;;;;;;;;;;;;;;4997267;28;19948;-66
2023/01/07 04:33:00;;;;;;;;;;;;;;;;;;4996618;28;19955;-66
2023/01/07 04:35:28;;;;;;;;;;;;;;;;;;4982493;28;20059;-67
2023/01/07 04:37:56;;;;;;;;;;;;;;;;;;4997265;28;19966;-67
2023/01/07 04:40:24;;;;;;;;;;;;;;;;;;5000739;28;20332;-67
2023/01/07 04:42:49;;;;;;;;;;;;;;;;;;4998695;28;19948;-66
2023/01/07 04:45:15;;;;;;;;;;;;;;;;;;4994140;28;19921;-67
2023/01/07 04:47:42;;;;;;;;;;;;;;;;;;4998433;28;19928;-67
2023/01/07 04:50:08;;;;;;;;;;;;;;;;;;4998124;28;20016;-67
2023/01/07 04:52:34;;;;;;;;;;;;;;;;;;4998122;28;19925;-67
2023/01/07 04:55:04;;;;;;;;;;;;;;;;;;4998786;28;19932;-67
2023/01/07 04:57:29;;;;;;;;;;;;;;;;;;4996542;28;19921;-67
2023/01/07 04:59:57;;;;;;;;;;;;;;;;;;4996761;28;19959;-67
2023/01/07 05:02:23;;;;;;;;;;;;;;;;;;4994601;28;19963;-67
2023/01/07 05:04:49;;;;;;;;;;;;;;;;;;4997971;28;20443;-66
2023/01/07 05:07:14;;;;;;;;;;;;;;;;;;4996265;28;19921;-66
2023/01/07 05:09:42;;;;;;;;;;;;;;;;;;4996649;28;20450;-67
2023/01/07 05:12:07;;;;;;;;;;;;;;;;;;4996375;28;20212;-66
2023/01/07 05:14:33;;;;;;;;;;;;;;;;;;4979629;28;20398;-67
2023/01/07 05:17:00;;;;;;;;;;;;;;;;;;4999693;28;20656;-67
2023/01/07 05:19:26;;;;;;;;;;;;;;;;;;5001722;28;19921;-66
2023/01/07 05:21:51;;;;;;;;;;;;;;;;;;5001301;28;19925;-67
2023/01/07 05:24:17;;;;;;;;;;;;;;;;;;5000548;28;19967;-67
2023/01/07 05:26:45;;;;;;;;;;;;;;;;;;5000991;28;19921;-65
2023/01/07 05:29:11;;;;;;;;;;;;;;;;;;5001084;28;19920;-67
2023/01/07 05:31:36;;;;;;;;;;;;;;;;;;4984947;28;19917;-67
2023/01/07 05:34:01;;;;;;;;;;;;;;;;;;5000274;28;19917;-68
2023/01/07 05:36:29;;;;;;;;;;;;;;;;;;5000100;28;19921;-66
2023/01/07 05:38:55;;;;;;;;;;;;;;;;;;5000917;28;19925;-66
2023/01/07 05:41:20;;;;;;;;;;;;;;;;;;5001898;28;19921;-66
2023/01/07 05:43:48;;;;;;;;;;;;;;;;;;5003309;28;19991;-66
2023/01/07 05:46:16;;;;;;;;;;;;;;;;;;4999453;28;19927;-66
2023/01/07 05:48:41;;;;;;;;;;;;;;;;;;5003274;28;19932;-65
2023/01/07 05:51:10;;;;;;;;;;;;;;;;;;5000423;28;19928;-65
2023/01/07 05:53:35;;;;;;;;;;;;;;;;;;4999823;28;19968;-65
2023/01/07 05:56:03;;;;;;;;;;;;;;;;;;5000531;28;20544;-68
2023/01/07 05:58:28;;;;;;;;;;;;;;;;;;5000507;28;19918;-65
2023/01/07 06:00:54;;;;;;;;;;;;;;;;;;5000920;28;20361;-65
2023/01/07 06:03:22;;;;;;;;;;;;;;;;;;5001510;28;20577;-66
2023/01/07 06:05:47;;;;;;;;;;;;;;;;;;4998486;28;19948;-66
2023/01/07 06:08:16;;;;;;;;;;;;;;;;;;5001257;28;19921;-66
2023/01/07 06:10:41;;;;;;;;;;;;;;;;;;4999003;28;20165;-66
2023/01/07 06:13:10;;;;;;;;;;;;;;;;;;5003459;28;20348;-66
2023/01/07 06:15:37;;;;;;;;;;;;;;;;;;4996040;28;20004;-66
2023/01/07 06:18:05;;;;;;;;;;;;;;;;;;5002052;28;19924;-66
2023/01/07 06:20:33;;;;;;;;;;;;;;;;;;4985525;28;19921;-65
2023/01/07 06:23:01;;;;;;;;;;;;;;;;;;4999136;28;20400;-66
2023/01/07 06:25:29;;;;;;;;;;;;;;;;;;4998492;28;19925;-66
2023/01/07 06:27:54;;;;;;;;;;;;;;;;;;4981870;28;20859;-66
2023/01/07 06:30:22;;;;;;;;;;;;;;;;;;4997753;28;20115;-65
2023/01/07 06:32:47;;;;;;;;;;;;;;;;;;5000310;28;19990;-65
2023/01/07 06:35:15;;;;;;;;;;;;;;;;;;4985460;28;19922;-65
2023/01/07 06:37:41;;;;;;;;;;;;;;;;;;5014223;28;19932;-66
2023/01/07 06:40:07;;;;;;;;;;;;;;;;;;4985056;28;20051;-65
2023/01/07 06:42:35;;;;;;;;;;;;;;;;;;4997543;28;19928;-65
2023/01/07 06:48:22;;;;;;;;;;;;;;;;;;5001081;28;19971;-66
2023/01/07 06:50:48;;;;;;;;;;;;;;;;;;5001082;28;19927;-66
2023/01/07 06:53:14;;;;;;;;;;;;;;;;;;5001838;28;21488;-67
2023/01/07 06:55:39;;;;;;;;;;;;;;;;;;4998517;28;20007;-65
2023/01/07 06:58:04;;;;;;;;;;;;;;;;;;5001065;28;19975;-66
2023/01/07 07:00:30;;;;;;;;;;;;;;;;;;4998683;28;20106;-66
2023/01/07 07:02:55;;;;;;;;;;;;;;;;;;4998356;28;21617;-64
2023/01/07 07:05:25;;;;;;;;;;;;;;;;;;4997322;28;22002;-65
2023/01/07 07:07:53;;;;;;;;;;;;;;;;;;4999866;28;19951;-66
2023/01/07 07:10:21;;;;;;;;;;;;;;;;;;5000917;28;20007;-67
2023/01/07 07:12:49;;;;;;;;;;;;;;;;;;4994809;28;19974;-66
2023/01/07 07:15:14;;;;;;;;;;;;;;;;;;4998378;28;19957;-65
2023/01/07 07:17:40;;;;;;;;;;;;;;;;;;4998889;28;20446;-67
2023/01/07 07:20:05;;;;;;;;;;;;;;;;;;4985687;28;19921;-66
2023/01/07 07:22:31;;;;;;;;;;;;;;;;;;4993137;28;20103;-67
2023/01/07 07:24:57;;;;;;;;;;;;;;;;;;4998243;28;19937;-67
2023/01/07 07:27:26;;;;;;;;;;;;;;;;;;4993473;28;19917;-67
2023/01/07 07:29:54;;;;;;;;;;;;;;;;;;4996527;28;20503;-67
2023/01/07 07:32:27;;;;;;;;;;;;;;;;;;4994493;28;19923;-66
2023/01/07 07:34:52;;;;;;;;;;;;;;;;;;4998135;28;19913;-67
2023/01/07 07:37:18;;;;;;;;;;;;;;;;;;4994043;28;20724;-67
2023/01/07 07:39:43;;;;;;;;;;;;;;;;;;4999387;28;19921;-66
2023/01/07 07:42:08;;;;;;;;;;;;;;;;;;4997071;28;19921;-66
2023/01/07 07:47:51;;;;;;;;;;;;;;;;;;4996531;28;19924;-66
2023/01/07 07:50:16;;;;;;;;;;;;;;;;;;4985680;28;19921;-66
2023/01/07 07:52:45;;;;;;;;;;;;;;;;;;4995662;28;20356;-67
2023/01/07 07:55:10;;;;;;;;;;;;;;;;;;4990809;28;19921;-65
2023/01/07 07:57:36;;;;;;;;;;;;;;;;;;4976613;28;20383;-66
2023/01/07 08:00:01;;;;;;;;;;;;;;;;;;4994019;28;19921;-66
2023/01/07 08:02:27;;;;;;;;;;;;;;;;;;4992568;28;20110;-66
2023/01/07 08:04:53;;;;;;;;;;;;;;;;;;4994064;28;20303;-67
2023/01/07 08:07:21;;;;;;;;;;;;;;;;;;4976694;28;19990;-67
2023/01/07 08:09:49;;;;;;;;;;;;;;;;;;4980458;28;19921;-67
2023/01/07 08:12:17;;;;;;;;;;;;;;;;;;4998836;28;20630;-67
2023/01/07 08:14:42;;;;;;;;;;;;;;;;;;4997336;28;21022;-68
2023/01/07 08:17:07;;;;;;;;;;;;;;;;;;4983365;28;19952;-67
2023/01/07 08:19:36;;;;;;;;;;;;;;;;;;4995559;28;20395;-66
2023/01/07 08:22:04;;;;;;;;;;;;;;;;;;4997133;28;20557;-67
2023/01/07 08:24:30;;;;;;;;;;;;;;;;;;4996148;28;20019;-67
2023/01/07 08:26:56;;;;;;;;;;;;;;;;;;4984837;28;21480;-68
2023/01/07 08:29:24;;;;;;;;;;;;;;;;;;4998482;28;20008;-67
2023/01/07 08:31:50;;;;;;;;;;;;;;;;;;4998379;28;20402;-66
2023/01/07 08:34:18;;;;;;;;;;;;;;;;;;4999097;28;19921;-66
2023/01/07 08:36:43;;;;;;;;;;;;;;;;;;4996223;28;19932;-68
2023/01/07 08:39:09;;;;;;;;;;;;;;;;;;5000395;28;19948;-67
2023/01/07 08:41:35;;;;;;;;;;;;;;;;;;4998107;28;20083;-67
2023/01/07 08:44:03;;;;;;;;;;;;;;;;;;4998128;28;19936;-67
2023/01/07 08:46:28;;;;;;;;;;;;;;;;;;4984470;28;19921;-67
2023/01/07 08:48:54;;;;;;;;;;;;;;;;;;4996207;28;19921;-67
2023/01/07 08:51:19;;;;;;;;;;;;;;;;;;5000449;28;20320;-66
2023/01/07 08:53:45;;;;;;;;;;;;;;;;;;4986923;28;19929;-66
2023/01/07 08:56:11;;;;;;;;;;;;;;;;;;5000822;28;19925;-66
2023/01/07 08:58:37;;;;;;;;;;;;;;;;;;5002852;28;19998;-66
2023/01/07 09:01:02;;;;;;;;;;;;;;;;;;4999323;28;19955;-66
2023/01/07 09:03:30;;;;;;;;;;;;;;;;;;4987006;28;19925;-66
2023/01/07 09:05:57;;;;;;;;;;;;;;;;;;5002398;28;19921;-65
2023/01/07 09:08:23;;;;;;;;;;;;;;;;;;4999204;28;19917;-66
2023/01/07 09:10:48;;;;;;;;;;;;;;;;;;5001967;28;20051;-66
2023/01/07 09:13:14;;;;;;;;;;;;;;;;;;5002535;28;19921;-66
2023/01/07 09:15:42;;;;;;;;;;;;;;;;;;5000614;28;20067;-66
2023/01/07 09:18:11;;;;;;;;;;;;;;;;;;5001106;28;20201;-68
2023/01/07 09:20:39;;;;;;;;;;;;;;;;;;4999168;28;20607;-67
2023/01/07 09:23:04;;;;;;;;;;;;;;;;;;5002294;28;19956;-65
2023/01/07 09:25:32;;;;;;;;;;;;;;;;;;5001138;28;19950;-66
2023/01/07 09:28:00;;;;;;;;;;;;;;;;;;5000584;28;21406;-66
2023/01/07 09:30:26;;;;;;;;;;;;;;;;;;5000772;28;19921;-65
2023/01/07 09:32:51;;;;;;;;;;;;;;;;;;4992607;28;20080;-65
2023/01/07 09:35:17;;;;;;;;;;;;;;;;;;4997603;28;20449;-66
2023/01/07 09:37:43;;;;;;;;;;;;;;;;;;4999685;28;20101;-66
2023/01/07 09:40:08;;;;;;;;;;;;;;;;;;4997636;28;19933;-66
2023/01/07 09:42:37;;;;;;;;;;;;;;;;;;4999853;28;20292;-65
2023/01/07 09:45:03;;;;;;;;;;;;;;;;;;5001808;28;21804;-66
2023/01/07 09:47:32;;;;;;;;;;;;;;;;;;4997313;28;19933;-66
2023/01/07 09:50:00;;;;;;;;;;;;;;;;;;4984519;28;19924;-65
2023/01/07 09:52:28;;;;;;;;;;;;;;;;;;5000307;28;20384;-66
2023/01/07 09:54:53;;;;;;;;;;;;;;;;;;4999750;28;19925;-65
2023/01/07 09:57:19;;;;;;;;;;;;;;;;;;5001088;28;20339;-66
2023/01/07 09:59:45;;;;;;;;;;;;;;;;;;4998677;28;19921;-66
2023/01/07 10:02:13;;;;;;;;;;;;;;;;;;4996347;28;19921;-67
2023/01/07 10:04:40;;;;;;;;;;;;;;;;;;4997487;28;19925;-68
2023/01/07 10:07:06;;;;;;;;;;;;;;;;;;4995518;28;19969;-66
2023/01/07 10:09:31;;;;;;;;;;;;;;;;;;4996448;28;20222;-67
2023/01/07 10:11:59;;;;;;;;;;;;;;;;;;4995142;28;20024;-65
2023/01/07 10:14:26;;;;;;;;;;;;;;;;;;4996556;28;19921;-67
2023/01/07 10:16:55;;;;;;;;;;;;;;;;;;4997655;28;21024;-67
2023/01/07 10:19:20;;;;;;;;;;;;;;;;;;4994973;28;19928;-66
2023/01/07 10:21:46;;;;;;;;;;;;;;;;;;4994455;28;19917;-66
2023/01/07 10:24:14;;;;;;;;;;;;;;;;;;4994724;28;19935;-66
2023/01/07 10:26:40;;;;;;;;;;;;;;;;;;4996854;28;19921;-66
2023/01/07 10:29:06;;;;;;;;;;;;;;;;;;5002181;28;19921;-66
2023/01/07 10:31:32;;;;;;;;;;;;;;;;;;5000142;28;19925;-67
2023/01/07 10:33:57;;;;;;;;;;;;;;;;;;4998963;28;20137;-68
2023/01/07 10:36:23;;;;;;;;;;;;;;;;;;4984047;28;20348;-66
2023/01/07 10:38:51;;;;;;;;;;;;;;;;;;5001544;28;19921;-66
2023/01/07 10:41:16;;;;;;;;;;;;;;;;;;4983521;28;20019;-67
2023/01/07 10:43:42;;;;;;;;;;;;;;;;;;5001031;28;19925;-68
2023/01/07 10:46:11;;;;;;;;;;;;;;;;;;4998696;28;20810;-69
2023/01/07 10:48:41;;;;;;;;;;;;;;;;;;5000284;28;19928;-67
2023/01/07 10:51:07;;;;;;;;;;;;;;;;;;4998756;28;19921;-66
2023/01/07 10:53:32;;;;;;;;;;;;;;;;;;4996653;28;19979;-68
2023/01/07 10:55:59;;;;;;;;;;;;;;;;;;4998377;28;19990;-68
2023/01/07 10:58:27;;;;;;;;;;;;;;;;;;4997396;28;19921;-68
2023/01/07 11:00:52;;;;;;;;;;;;;;;;;;4997474;28;20414;-67
2023/01/07 11:03:18;;;;;;;;;;;;;;;;;;4999323;28;19921;-69
2023/01/07 11:05:44;;;;;;;;;;;;;;;;;;4998309;28;20519;-68
2023/01/07 11:08:11;;;;;;;;;;;;;;;;;;4980987;28;21489;-67
2023/01/07 11:10:40;;;;;;;;;;;;;;;;;;4997482;28;20010;-69
2023/01/07 11:13:07;;;;;;;;;;;;;;;;;;4980404;28;20044;-69
2023/01/07 11:15:33;;;;;;;;;;;;;;;;;;4994269;28;21829;-68
2023/01/07 11:18:02;;;;;;;;;;;;;;;;;;4995980;28;19921;-67
2023/01/07 11:20:27;;;;;;;;;;;;;;;;;;4995217;28;20286;-67
2023/01/07 11:22:53;;;;;;;;;;;;;;;;;;4996862;28;19999;-67
2023/01/07 11:25:18;;;;;;;;;;;;;;;;;;4997113;28;21438;-67
2023/01/07 11:27:44;;;;;;;;;;;;;;;;;;4995992;28;21619;-68
2023/01/07 11:30:12;;;;;;;;;;;;;;;;;;4981655;28;19971;-68
2023/01/07 11:32:39;;;;;;;;;;;;;;;;;;4995346;28;19963;-69
2023/01/07 11:35:04;;;;;;;;;;;;;;;;;;4999246;28;20210;-69
2023/01/07 11:37:32;;;;;;;;;;;;;;;;;;4982973;28;19925;-69
2023/01/07 11:40:00;;;;;;;;;;;;;;;;;;5001185;28;19964;-69
2023/01/07 11:42:37;;;;;;;;;;;;;;;;;;4983227;28;20173;-68
2023/01/07 11:45:02;;;;;;;;;;;;;;;;;;4984935;28;19925;-69
2023/01/07 11:47:30;;;;;;;;;;;;;;;;;;4996022;28;20023;-69
2023/01/07 11:49:58;;;;;;;;;;;;;;;;;;5001750;28;20436;-70
2023/01/07 11:52:24;;;;;;;;;;;;;;;;;;4999672;28;20365;-69
2023/01/07 11:54:52;;;;;;;;;;;;;;;;;;4996562;28;19939;-69
2023/01/07 11:57:17;;;;;;;;;;;;;;;;;;4999114;28;19921;-69
2023/01/07 11:59:45;;;;;;;;;;;;;;;;;;4998355;28;20377;-68
2023/01/07 12:02:11;;;;;;;;;;;;;;;;;;4998227;28;19917;-68
2023/01/07 12:04:36;;;;;;;;;;;;;;;;;;4996309;28;19952;-68
2023/01/07 12:07:03;;;;;;;;;;;;;;;;;;4996339;28;19921;-66
2023/01/07 12:09:29;;;;;;;;;;;;;;;;;;4996051;28;19928;-68
2023/01/07 12:11:57;;;;;;;;;;;;;;;;;;4997694;28;19913;-69
2023/01/07 12:14:25;;;;;;;;;;;;;;;;;;4997832;28;19964;-68
2023/01/07 12:16:51;;;;;;;;;;;;;;;;;;4996504;28;19921;-68
2023/01/07 12:19:16;;;;;;;;;;;;;;;;;;4974066;28;19940;-67
2023/01/07 12:21:42;;;;;;;;;;;;;;;;;;4992092;28;19928;-68
2023/01/07 12:24:08;;;;;;;;;;;;;;;;;;4993460;28;19925;-68
2023/01/07 12:26:36;;;;;;;;;;;;;;;;;;4998561;28;20174;-68
2023/01/07 12:29:02;;;;;;;;;;;;;;;;;;5000969;28;19977;-68
2023/01/07 12:31:28;;;;;;;;;;;;;;;;;;5001546;28;19943;-67
2023/01/07 12:33:54;;;;;;;;;;;;;;;;;;5001235;28;21612;-68
2023/01/07 12:36:20;;;;;;;;;;;;;;;;;;4998701;28;19925;-68
2023/01/07 12:38:45;;;;;;;;;;;;;;;;;;5001732;28;20770;-69
2023/01/07 12:41:18;;;;;;;;;;;;;;;;;;5005981;28;19956;-68
2023/01/07 12:43:44;;;;;;;;;;;;;;;;;;5002989;28;20372;-68
2023/01/07 12:46:09;;;;;;;;;;;;;;;;;;5004700;28;19928;-68
2023/01/07 12:48:35;;;;;;;;;;;;;;;;;;4989755;28;19921;-68
2023/01/07 12:51:03;;;;;;;;;;;;;;;;;;5002219;28;20356;-69
2023/01/07 12:53:28;;;;;;;;;;;;;;;;;;5002577;28;20279;-68
2023/01/07 12:55:56;;;;;;;;;;;;;;;;;;5005508;28;19921;-71
2023/01/07 12:58:24;;;;;;;;;;;;;;;;;;5003375;28;19960;-68
2023/01/07 13:00:49;;;;;;;;;;;;;;;;;;4989723;28;19940;-69
2023/01/07 13:03:15;;;;;;;;;;;;;;;;;;5004624;28;20010;-68
2023/01/07 13:05:41;;;;;;;;;;;;;;;;;;5002190;28;19924;-70
2023/01/07 13:08:06;;;;;;;;;;;;;;;;;;5002842;28;19924;-69
2023/01/07 13:10:35;;;;;;;;;;;;;;;;;;5003494;28;19956;-68
2023/01/07 13:13:02;;;;;;;;;;;;;;;;;;5000219;28;19941;-68
2023/01/07 13:15:32;;;;;;;;;;;;;;;;;;4988794;28;19917;-67
2023/01/07 13:18:01;;;;;;;;;;;;;;;;;;5003290;28;19960;-69
2023/01/07 13:20:27;;;;;;;;;;;;;;;;;;5005683;28;20343;-68
2023/01/07 13:22:53;;;;;;;;;;;;;;;;;;5002055;28;20146;-68
2023/01/07 13:25:20;;;;;;;;;;;;;;;;;;5003266;28;19975;-70
2023/01/07 13:27:45;;;;;;;;;;;;;;;;;;5006093;28;19917;-67
2023/01/07 13:30:13;;;;;;;;;;;;;;;;;;5003445;28;19995;-69
2023/01/07 13:32:39;;;;;;;;;;;;;;;;;;5005771;28;20494;-68
2023/01/07 13:35:09;;;;;;;;;;;;;;;;;;5001926;28;20157;-68
2023/01/07 13:37:34;;;;;;;;;;;;;;;;;;4999223;28;20361;-69
2023/01/07 13:40:00;;;;;;;;;;;;;;;;;;4994299;28;19928;-68
2023/01/07 13:42:27;;;;;;;;;;;;;;;;;;4982262;28;19921;-68
2023/01/07 13:44:53;;;;;;;;;;;;;;;;;;4999527;28;20068;-66
2023/01/07 13:47:23;;;;;;;;;;;;;;;;;;4999154;28;19921;-68
2023/01/07 13:49:49;;;;;;;;;;;;;;;;;;4998907;28;20003;-69
2023/01/07 13:52:14;;;;;;;;;;;;;;;;;;4997210;28;20335;-67
2023/01/07 13:54:39;;;;;;;;;;;;;;;;;;4994762;28;20216;-66
2023/01/07 13:57:05;;;;;;;;;;;;;;;;;;4995647;28;19944;-67
2023/01/07 13:59:33;;;;;;;;;;;;;;;;;;4980923;28;20483;-68
2023/01/07 14:02:01;;;;;;;;;;;;;;;;;;4995483;28;20356;-69
2023/01/07 14:04:26;;;;;;;;;;;;;;;;;;4983406;28;19982;-69
2023/01/07 14:06:51;;;;;;;;;;;;;;;;;;4997880;28;20384;-68
2023/01/07 14:09:18;;;;;;;;;;;;;;;;;;5000600;28;19932;-68
2023/01/07 14:11:45;;;;;;;;;;;;;;;;;;5015245;28;19967;-67
2023/01/07 14:14:13;;;;;;;;;;;;;;;;;;4999583;28;20307;-68
2023/01/07 14:16:39;;;;;;;;;;;;;;;;;;4997198;28;19921;-68
2023/01/07 14:19:06;;;;;;;;;;;;;;;;;;5000276;28;20027;-68
2023/01/07 14:21:31;;;;;;;;;;;;;;;;;;5001626;28;19918;-69
2023/01/07 14:23:59;;;;;;;;;;;;;;;;;;4999715;28;19967;-71
2023/01/07 14:26:24;;;;;;;;;;;;;;;;;;4998352;28;21186;-69
2023/01/07 14:28:49;;;;;;;;;;;;;;;;;;4985040;28;21039;-68
2023/01/07 14:31:17;;;;;;;;;;;;;;;;;;4997880;28;20412;-69
2023/01/07 14:33:42;;;;;;;;;;;;;;;;;;4997051;28;20099;-69
2023/01/07 14:36:10;;;;;;;;;;;;;;;;;;4984222;28;19974;-69
2023/01/07 14:38:36;;;;;;;;;;;;;;;;;;5000036;28;19921;-68
2023/01/07 14:41:01;;;;;;;;;;;;;;;;;;4998633;28;19921;-69
2023/01/07 14:43:29;;;;;;;;;;;;;;;;;;4998309;28;20955;-67
2023/01/07 14:45:55;;;;;;;;;;;;;;;;;;4998037;28;19916;-68
2023/01/07 14:48:22;;;;;;;;;;;;;;;;;;4996174;28;20594;-67
2023/01/07 14:50:50;;;;;;;;;;;;;;;;;;4981237;28;19947;-69
2023/01/07 14:53:16;;;;;;;;;;;;;;;;;;4997240;28;19929;-69
2023/01/07 14:55:41;;;;;;;;;;;;;;;;;;4983108;28;20424;-68
2023/01/07 14:58:08;;;;;;;;;;;;;;;;;;4997584;28;20211;-70
2023/01/07 15:00:34;;;;;;;;;;;;;;;;;;4997034;28;19968;-69
2023/01/07 15:03:00;;;;;;;;;;;;;;;;;;5001922;28;20170;-68
2023/01/07 15:05:25;;;;;;;;;;;;;;;;;;4993187;28;19931;-66
2023/01/07 15:15:59;;;;;;;;;;;;;;;;;;4997246;28;20372;-69
2023/01/07 15:16:10;;;;;;;;;;;;;;;;;;4997047;28;19928;-70
2023/01/07 15:18:35;;;;;;;;;;;;;;;;;;4980476;28;19927;-71
2023/01/07 15:21:01;;;;;;;;;;;;;;;;;;4999299;28;20099;-69
2023/01/07 15:23:26;;;;;;;;;;;;;;;;;;4995885;28;20049;-68
2023/01/07 15:25:56;;;;;;;;;;;;;;;;;;4997720;28;20449;-68
2023/01/07 15:28:24;;;;;;;;;;;;;;;;;;4998297;28;19944;-68
2023/01/07 15:30:52;;;;;;;;;;;;;;;;;;4980815;28;19993;-68
2023/01/07 15:33:17;;;;;;;;;;;;;;;;;;4987096;28;19971;-68
2023/01/07 15:35:43;;;;;;;;;;;;;;;;;;4982708;28;20140;-69
2023/01/07 15:38:08;;;;;;;;;;;;;;;;;;4982593;28;20012;-70
2023/01/07 15:40:33;;;;;;;;;;;;;;;;;;4993757;28;19996;-69
2023/01/07 15:42:59;;;;;;;;;;;;;;;;;;4998084;28;19924;-67
2023/01/07 15:45:27;;;;;;;;;;;;;;;;;;4999508;28;19925;-69
2023/01/07 15:47:52;;;;;;;;;;;;;;;;;;4998012;28;19921;-69
2023/01/07 15:50:18;;;;;;;;;;;;;;;;;;4998272;28;19930;-69
2023/01/07 15:52:43;;;;;;;;;;;;;;;;;;4998560;28;19932;-69
2023/01/07 15:55:10;;;;;;;;;;;;;;;;;;4984351;28;20465;-68
2023/01/07 15:57:36;;;;;;;;;;;;;;;;;;4982844;28;19932;-68
2023/01/07 16:00:01;;;;;;;;;;;;;;;;;;4997626;28;19952;-68
2023/01/07 16:02:27;;;;;;;;;;;;;;;;;;4997333;28;19928;-68
2023/01/07 16:04:55;;;;;;;;;;;;;;;;;;4997898;28;19925;-68
2023/01/07 16:07:21;;;;;;;;;;;;;;;;;;4984472;28;20048;-67
2023/01/07 16:09:49;;;;;;;;;;;;;;;;;;4983701;28;19921;-70
2023/01/07 16:12:14;;;;;;;;;;;;;;;;;;5000085;28;20399;-68
2023/01/07 16:14:41;;;;;;;;;;;;;;;;;;4995612;28;19924;-69
2023/01/07 16:17:09;;;;;;;;;;;;;;;;;;4996803;28;19965;-68
2023/01/07 16:19:37;;;;;;;;;;;;;;;;;;4997076;28;20052;-68
2023/01/07 16:22:02;;;;;;;;;;;;;;;;;;4995645;28;19921;-68
2023/01/07 16:24:30;;;;;;;;;;;;;;;;;;4994728;28;20426;-68
2023/01/07 16:26:55;;;;;;;;;;;;;;;;;;4996831;28;19929;-68
2023/01/07 16:29:21;;;;;;;;;;;;;;;;;;4995591;28;20432;-68
2023/01/07 16:31:46;;;;;;;;;;;;;;;;;;5011567;28;19921;-74
2023/01/07 16:34:11;;;;;;;;;;;;;;;;;;4996869;28;20029;-68
2023/01/07 16:36:41;;;;;;;;;;;;;;;;;;5010428;28;19952;-69
2023/01/07 16:39:10;;;;;;;;;;;;;;;;;;4994785;28;19927;-69
2023/01/07 16:41:35;;;;;;;;;;;;;;;;;;4995445;28;20012;-66
2023/01/07 16:44:00;;;;;;;;;;;;;;;;;;4992266;28;20395;-69
2023/01/07 16:46:28;;;;;;;;;;;;;;;;;;4993846;28;19933;-68
2023/01/07 16:48:54;;;;;;;;;;;;;;;;;;4994537;28;19928;-69
2023/01/07 16:51:19;;;;;;;;;;;;;;;;;;4997512;28;20359;-68
2023/01/07 16:53:49;;;;;;;;;;;;;;;;;;4996560;28;19936;-67
2023/01/07 16:56:15;;;;;;;;;;;;;;;;;;4996387;28;20412;-67